sensor_id;sensor_type;location;lat;lon;timestamp;P1;durP1;ratioP1;P2;durP2;ratioP2
48014;SDS011;33780;51.034;7.120;2022-12-07T15:45:54;12.82;;;3.75;;
48014;SDS011;33780;51.034;7.120;2022-12-07T15:48:19;10.20;;;3.55;;
48014;SDS011;33780;51.034;7.120;2022-12-07T15:50:44;9.60;;;3.50;;
48014;SDS011;33780;51.034;7.120;2022-12-07T15:53:10;8.73;;;3.50;;
48014;SDS011;33780;51.034;7.120;2022-12-07T15:55:35;10.63;;;4.00;;
48014;SDS011;33780;51.034;7.120;2022-12-07T15:58:03;8.80;;;3.92;;
48014;SDS011;33780;51.034;7.120;2022-12-07T16:00:28;9.05;;;3.35;;
48014;SDS011;33780;51.034;7.120;2022-12-07T16:02:54;7.25;;;3.35;;
48014;SDS011;33780;51.034;7.120;2022-12-07T16:05:19;12.35;;;4.53;;
48014;SDS011;33780;51.034;7.120;2022-12-07T16:07:44;11.68;;;4.07;;
48014;SDS011;33780;51.034;7.120;2022-12-07T16:10:11;8.55;;;3.60;;
48014;SDS011;33780;51.034;7.120;2022-12-07T16:12:36;11.63;;;4.10;;
48014;SDS011;33780;51.034;7.120;2022-12-07T16:15:02;7.05;;;3.95;;
48014;SDS011;33780;51.034;7.120;2022-12-07T16:17:27;9.68;;;3.20;;
48014;SDS011;33780;51.034;7.120;2022-12-07T16:19:52;8.32;;;3.05;;
48014;SDS011;33780;51.034;7.120;2022-12-07T16:22:18;7.45;;;2.90;;
48014;SDS011;33780;51.034;7.120;2022-12-07T16:24:43;5.32;;;2.95;;
48014;SDS011;33780;51.034;7.120;2022-12-07T16:27:08;8.68;;;3.13;;
48014;SDS011;33780;51.034;7.120;2022-12-07T16:29:34;6.18;;;3.28;;
48014;SDS011;33780;51.034;7.120;2022-12-07T16:31:59;5.45;;;2.63;;
48014;SDS011;33780;51.034;7.120;2022-12-07T16:34:25;5.35;;;2.70;;
48014;SDS011;33780;51.034;7.120;2022-12-07T16:36:50;8.18;;;3.30;;
48014;SDS011;33780;51.034;7.120;2022-12-07T16:39:15;5.32;;;2.88;;
48014;SDS011;33780;51.034;7.120;2022-12-07T16:41:41;7.03;;;3.00;;
48014;SDS011;33780;51.034;7.120;2022-12-07T16:44:07;6.28;;;3.53;;
48014;SDS011;33780;51.034;7.120;2022-12-07T16:46:35;9.30;;;4.05;;
48014;SDS011;33780;51.034;7.120;2022-12-07T16:49:01;5.72;;;3.15;;
48014;SDS011;33780;51.034;7.120;2022-12-07T16:51:26;6.15;;;3.05;;
48014;SDS011;33780;51.034;7.120;2022-12-07T16:53:52;5.55;;;2.83;;
48014;SDS011;33780;51.034;7.120;2022-12-07T16:56:18;7.03;;;3.55;;
48014;SDS011;33780;51.034;7.120;2022-12-07T16:58:44;6.80;;;3.80;;
48014;SDS011;33780;51.034;7.120;2022-12-07T17:01:11;7.22;;;3.90;;
48014;SDS011;33780;51.034;7.120;2022-12-07T17:03:38;8.80;;;4.43;;
48014;SDS011;33780;51.034;7.120;2022-12-07T17:06:10;12.48;;;4.50;;
48014;SDS011;33780;51.034;7.120;2022-12-07T17:08:39;12.38;;;4.82;;
48014;SDS011;33780;51.034;7.120;2022-12-07T17:11:12;7.30;;;4.60;;
48014;SDS011;33780;51.034;7.120;2022-12-07T17:13:39;8.77;;;4.50;;
48014;SDS011;33780;51.034;7.120;2022-12-07T17:16:24;8.88;;;4.40;;
48014;SDS011;33780;51.034;7.120;2022-12-07T17:18:49;8.60;;;4.22;;
48014;SDS011;33780;51.034;7.120;2022-12-07T17:21:15;10.80;;;4.05;;
48014;SDS011;33780;51.034;7.120;2022-12-07T17:23:40;10.13;;;4.78;;
48014;SDS011;33780;51.034;7.120;2022-12-07T17:26:10;11.68;;;5.13;;
48014;SDS011;33780;51.034;7.120;2022-12-07T17:28:37;12.18;;;5.03;;
48014;SDS011;33780;51.034;7.120;2022-12-07T17:31:07;10.60;;;5.40;;
48014;SDS011;33780;51.034;7.120;2022-12-07T17:33:34;13.95;;;5.72;;
48014;SDS011;33780;51.034;7.120;2022-12-07T17:36:00;9.10;;;4.78;;
48014;SDS011;33780;51.034;7.120;2022-12-07T17:38:27;11.68;;;5.07;;
48014;SDS011;33780;51.034;7.120;2022-12-07T17:40:53;9.80;;;5.05;;
48014;SDS011;33780;51.034;7.120;2022-12-07T17:43:18;11.02;;;5.18;;
48014;SDS011;33780;51.034;7.120;2022-12-07T17:45:44;10.45;;;4.93;;
48014;SDS011;33780;51.034;7.120;2022-12-07T17:48:09;10.70;;;4.88;;
48014;SDS011;33780;51.034;7.120;2022-12-07T17:50:34;10.13;;;5.45;;
48014;SDS011;33780;51.034;7.120;2022-12-07T17:53:18;9.55;;;5.20;;
48014;SDS011;33780;51.034;7.120;2022-12-07T17:55:43;10.10;;;5.18;;
48014;SDS011;33780;51.034;7.120;2022-12-07T17:58:09;10.07;;;4.95;;
48014;SDS011;33780;51.034;7.120;2022-12-07T18:00:34;9.50;;;4.65;;
48014;SDS011;33780;51.034;7.120;2022-12-07T18:03:06;14.27;;;5.22;;
48014;SDS011;33780;51.034;7.120;2022-12-07T18:05:35;8.95;;;5.10;;
48014;SDS011;33780;51.034;7.120;2022-12-07T18:08:08;9.85;;;4.85;;
48014;SDS011;33780;51.034;7.120;2022-12-07T18:10:33;10.90;;;5.30;;
48014;SDS011;33780;51.034;7.120;2022-12-07T18:12:58;11.40;;;4.90;;
48014;SDS011;33780;51.034;7.120;2022-12-07T18:15:42;10.50;;;4.97;;
48014;SDS011;33780;51.034;7.120;2022-12-07T18:18:08;13.18;;;5.10;;
48014;SDS011;33780;51.034;7.120;2022-12-07T18:20:33;9.65;;;5.03;;
48014;SDS011;33780;51.034;7.120;2022-12-07T18:22:58;11.48;;;5.35;;
48014;SDS011;33780;51.034;7.120;2022-12-07T18:25:24;11.65;;;4.53;;
48014;SDS011;33780;51.034;7.120;2022-12-07T18:27:49;13.30;;;5.03;;
48014;SDS011;33780;51.034;7.120;2022-12-07T18:30:14;9.93;;;4.82;;
48014;SDS011;33780;51.034;7.120;2022-12-07T18:32:40;11.77;;;5.65;;
48014;SDS011;33780;51.034;7.120;2022-12-07T18:35:05;9.10;;;4.88;;
